• Join FlightAware (Why Join?)
  • Login
  • US Flag 
09:42AM EDT


 

Airport Tracker/Info


-or-


 

Live Flight TrackerFlight Track Log ✈ N33LA ✈ 30-Apr-2013 ✈ M83 - KFTY

Flight Track Log - Related Links

Times and Time Zones

All times are in EDT time to prevent confusion due to time zone crossing. See the N33LA flight status page for this flight to view local times or setup timezone preferences in your user account.

Time Position Orientation Groundspeed Altitude Reporting Facility
EDT Latitude Longitude Course Direction KTS MPH feet Rate Location/Type
05:41PM 33.5264 -88.6503 145° Southeast 124 143 3,700  Level Memphis Center
05:42PM 33.5156 -88.6131 109° East 144 166 5,300 1,680 Climbing Memphis Center
05:43PM 33.5189 -88.5558 86° East 161 185 7,000 1,440 Climbing Memphis Center
05:44PM 33.5200 -88.4983 89° East 176 203 8,300 1,080 Climbing Memphis Center
05:45PM 33.5211 -88.4336 89° East 198 228 9,200 960 Climbing Memphis Center
05:46PM 33.5264 -88.3586 85° East 207 238 10,300 840 Climbing Memphis Center
05:47PM 33.5294 -88.2914 87° East 210 242 11,000 300 Climbing Memphis Center
05:48PM 33.5322 -88.2139 88° East 238 274 11,000  Level Memphis Center
05:49PM 33.5389 -88.1267 85° East 249 287 11,000  Level Memphis Center
05:51PM 33.5503 -87.9572 85° East 261 300 11,100  Climbing Atlanta Center
05:52PM 33.5592 -87.8728 83° East 256 295 11,100  Level Atlanta Center
05:53PM 33.5703 -87.7886 81° East 256 295 11,100  Level Atlanta Center
05:54PM 33.5811 -87.7042 81° East 256 295 11,100  Level Atlanta Center
05:55PM 33.5897 -87.6222 83° East 256 295 11,100  Level Atlanta Center
05:56PM 33.5986 -87.5353 83° East 256 295 11,100  Level Atlanta Center
05:57PM 33.6069 -87.4533 83° East 256 295 11,100  Level Atlanta Center
05:58PM 33.6178 -87.3689 81° East 256 295 11,100  Level Atlanta Center
05:59PM 33.6200 -87.2817 88° East 256 295 11,100  Level Atlanta Center
06:00PM 33.6161 -87.1969 93° East 256 295 11,100  Level Atlanta Center
06:01PM 33.6139 -87.1119 92° East 256 295 11,100  Level Atlanta Center
06:02PM 33.6097 -87.0294 93° East 256 295 11,100  Level Atlanta Center
06:03PM 33.6097 -86.9422 90° East 256 295 11,100  Level Atlanta Center
06:04PM 33.6056 -86.8572 93° East 256 295 11,100  Level Atlanta Center
06:05PM 33.6033 -86.7725 92° East 256 295 11,100  Level Atlanta Center
06:06PM 33.6008 -86.6900 92° East 256 295 11,100  Level Atlanta Center
06:07PM 33.5964 -86.6050 94° East 256 295 11,100  Level Atlanta Center
06:08PM 33.5919 -86.5225 94° East 256 295 11,100  Level Atlanta Center
06:09PM 33.5894 -86.4353 92° East 256 295 11,100  Level Atlanta Center
06:10PM 33.5869 -86.3506 92° East 256 295 11,100 -60 Level Atlanta Center
06:11PM 33.5842 -86.2656 92° East 256 295 11,000 -60 Descending Atlanta Center
06:12PM 33.5794 -86.1781 94° East 256 295 11,000  Level Atlanta Center
06:13PM 33.5789 -86.0933 90° East 256 295 11,000  Level Atlanta Center
06:14PM 33.5781 -86.0086 91° East 256 295 11,000  Level Atlanta Center
06:15PM 33.5919 -85.9242 79° East 256 295 11,000 -60 Level Atlanta Center
06:16PM 33.6036 -85.8369 81° East 256 295 10,900 -420 Descending Atlanta Center
06:17PM 33.6131 -85.7600 82° East 256 295 10,200 -1,080 Descending Atlanta Center
06:18PM 33.6292 -85.6681 78° East 267 307 8,800 -1,560 Descending Atlanta Center
06:19PM 33.6447 -85.5758 79° East 276 318 7,100 -1,740 Descending Atlanta Center
06:20PM 33.6522 -85.4839 84° East 276 318 5,400 -1,080 Descending Atlanta Center
06:21PM 33.6658 -85.3942 80° East 263 303 5,000 -240 Descending Atlanta Center
06:22PM 33.6769 -85.3194 80° East 238 274 5,000  Level Atlanta Center
06:23PM 33.6861 -85.2422 82° East 233 268 5,000  Level Atlanta Center
06:24PM 33.6972 -85.1650 80° East 233 268 5,000 -420 Level Atlanta Center
06:25PM 33.7083 -85.0853 80° East 238 274 4,200 -960 Descending Atlanta Center
06:26PM 33.7175 -85.0053 82° East 238 274 3,100 -600 Descending Atlanta Center
06:27PM 33.7283 -84.9356 79° East 226 260 3,000 -60 Descending Atlanta Center
06:28PM 33.7350 -84.8731 83° East 195 224 3,000  Level Atlanta Center
06:28PM 33.7333 -84.8333 93° East 196 226 3,000  Level Atlanta TRACON
06:29PM 33.7500 -84.7833 68° East 200 230 3,000  Level Atlanta TRACON
06:30PM 33.7500 -84.7000 90° East 183 211 3,000 -120 Level Atlanta TRACON
06:31PM 33.7667 -84.6500 68° East 169 194 2,800 -480 Descending Atlanta TRACON
06:32PM 33.7667 -84.6000 90° East 120 138 2,100 -600 Descending Atlanta TRACON
06:33PM 33.7667 -84.5667 90° East 122 140 1,600 -600 Descending Atlanta TRACON
06:35PM 33.7667 -84.5167 90° East  Level FlightAware Approximate
06:42PM 33.7791 -84.5214 90° East  Level Estimated